Météo Nord-Pas-de-Calais   La météo au plus près de chez vous

Station météorologique

Observations météo à Houdelaincourt (55248)

55248001 390 m Dernier relevé à 07:30
11.6°C
Humidité 76 % Vent 15.1 km/h 1026.2 hPa

Journée consultée

Dimanche 6 Septembre 2026

Synthèse de la journée

Périodes de référence en UTC

Température maximale

23.3°C

à 17:00

06h 06h

Température minimale

11.5°C

à 07:06

18h 18h

Rafale maximale

22 km/h

à 06:42

00h 00h

Précipitations

0 mm

Cumul quotidien

06h 06h

Ensoleillement

0h 5 mins

Durée quotidienne

00h 00h

Graphiques de la journée

Heure locale Réduire

Données détaillées

Relevés météo

Pas de 6 minutes Afficher les relevés infra-horaires
Relevés météo détaillés à Houdelaincourt pour le Dimanche 6 Septembre 2026
Heure Température °C Point de rosée °C Humidité % Vent moyen (raf.), km/h Précipitations mm Ensoleillement min Rayonnement global W/m² Pression hPa
07:30 11.6 °C 8.1 °C 79 % 14 km/h (18 km/h) 0 mm0 mm 5 min 12.7 W/m² 1026.3 hPa
07:24 11.6 °C 8.1 °C 79 % 15 km/h (21 km/h) 0 mm0 mm 0 min 9.8 W/m² 1026.3 hPa
07:18 11.5 °C 8 °C 79 % 15 km/h (21 km/h) 0 mm0 mm 0 min 6.6 W/m² 1026.3 hPa
07:12 11.5 °C 8 °C 79 % 14 km/h (19 km/h) 0 mm0 mm 0 min 2.2 W/m² 1026.4 hPa
07:06 11.5 °C 7.8 °C 78 % 15 km/h (21 km/h) 0 mm0 mm 0 min 0 W/m² 1026.3 hPa
07:00 11.7 °C 8 °C 78 % 16 km/h (21 km/h) 0 mm0 mm 0 min 0 W/m² 1026.4 hPa
06:54 11.8 °C 8.1 °C 78 % 15 km/h (19 km/h) 0 mm0 mm 0 min 0 W/m² 1026.3 hPa
06:48 11.8 °C 8.1 °C 78 % 17 km/h (22 km/h) 0 mm0 mm 0 min 0 W/m² 1026.3 hPa
06:42 11.9 °C 8 °C 77 % 17 km/h (22 km/h) 0 mm0 mm 0 min 0 W/m² 1026.3 hPa
06:36 11.8 °C 7.9 °C 77 % 16 km/h (21 km/h) 0 mm0 mm 0 min 0 W/m² 1026.3 hPa
06:30 12 °C 7.9 °C 76 % 15 km/h (19 km/h) 0 mm0 mm 0 min 0 W/m² 1026.2 hPa
06:24 12.2 °C 8.1 °C 76 % 15 km/h (19 km/h) 0 mm0 mm 0 min 0 W/m² 1026.2 hPa
06:18 12.2 °C 8.1 °C 76 % 15 km/h (20 km/h) 0 mm0 mm 0 min 0 W/m² 1026.2 hPa
06:12 12.1 °C 8 °C 76 % 16 km/h (20 km/h) 0 mm0 mm 0 min 0 W/m² 1026.2 hPa
06:06 12.1 °C 8 °C 76 % 15 km/h (18 km/h) 0 mm0 mm 0 min 0 W/m² 1026.3 hPa
06:00 12.1 °C 8 °C 76 % 14 km/h (17 km/h) 0 mm0 mm 0 min 0 W/m² 1026.4 hPa
05:54 12.2 °C 8.1 °C 76 % 13 km/h (17 km/h) 0 mm0 mm 0 min 0 W/m² 1026.4 hPa
05:48 12.2 °C 8.1 °C 76 % 14 km/h (17 km/h) 0 mm0 mm 0 min 0 W/m² 1026.4 hPa
05:42 12.3 °C 8 °C 75 % 14 km/h (17 km/h) 0 mm0 mm 0 min 0 W/m² 1026.4 hPa
05:36 12.6 °C 8.1 °C 74 % 14 km/h (19 km/h) 0 mm0 mm 0 min 0 W/m² 1026.2 hPa
05:30 12.6 °C 8.1 °C 74 % 15 km/h (19 km/h) 0 mm0 mm 0 min 0 W/m² 1026.4 hPa
05:24 12.6 °C 8.1 °C 74 % 15 km/h (19 km/h) 0 mm0 mm 0 min 0 W/m² 1026.2 hPa
05:18 12.6 °C 8.1 °C 74 % 15 km/h (20 km/h) 0 mm0 mm 0 min 0 W/m² 1026.4 hPa
05:12 12.5 °C 8.2 °C 75 % 13 km/h (20 km/h) 0 mm0 mm 0 min 0 W/m² 1026.4 hPa
05:06 12.4 °C 7.9 °C 74 % 13 km/h (18 km/h) 0 mm0 mm 0 min 0 W/m² 1026.4 hPa
05:00 12.5 °C 8 °C 74 % 14 km/h (20 km/h) 0 mm0 mm 0 min 0 W/m² 1026.3 hPa
04:54 12.2 °C 7.9 °C 75 % 15 km/h (19 km/h) 0 mm0 mm 0 min 0 W/m² 1026.4 hPa
04:48 12.4 °C 7.9 °C 74 % 15 km/h (19 km/h) 0 mm0 mm 0 min 0 W/m² 1026.4 hPa
04:42 12.5 °C 7.8 °C 73 % 16 km/h (19 km/h) 0 mm0 mm 0 min 0 W/m² 1026.4 hPa
04:36 12.8 °C 7.9 °C 72 % 14 km/h (19 km/h) 0 mm0 mm 0 min 0 W/m² 1026.4 hPa
04:30 12.9 °C 8 °C 72 % 14 km/h (18 km/h) 0 mm0 mm 0 min 0 W/m² 1026.5 hPa
04:24 13.1 °C 8 °C 71 % 14 km/h (19 km/h) 0 mm0 mm 0 min 0 W/m² 1026.4 hPa
04:18 13.1 °C 8.2 °C 72 % 14 km/h (18 km/h) 0 mm0 mm 0 min 0 W/m² 1026.5 hPa
04:12 13 °C 8.3 °C 73 % 13 km/h (16 km/h) 0 mm0 mm 0 min 0 W/m² 1026.5 hPa
04:06 12.8 °C 7.9 °C 72 % 13 km/h (15 km/h) 0 mm0 mm 0 min 0 W/m² 1026.6 hPa
04:00 12.9 °C 8 °C 72 % 13 km/h (18 km/h) 0 mm0 mm 0 min 0 W/m² 1026.7 hPa
03:54 13.1 °C 8.2 °C 72 % 13 km/h (18 km/h) 0 mm0 mm 0 min 0 W/m² 1026.7 hPa
03:48 13 °C 8.3 °C 73 % 13 km/h (15 km/h) 0 mm0 mm 0 min 0 W/m² 1026.7 hPa
03:42 12.5 °C 8 °C 74 % 13 km/h (14 km/h) 0 mm0 mm 0 min 0 W/m² 1026.8 hPa
03:36 12.4 °C 7.9 °C 74 % 13 km/h (14 km/h) 0 mm0 mm 0 min 0 W/m² 1026.8 hPa
03:30 12.4 °C 7.5 °C 72 % 12 km/h (13 km/h) 0 mm0 mm 0 min 0 W/m² 1026.9 hPa
03:24 12.9 °C 7.8 °C 71 % 10 km/h (12 km/h) 0 mm0 mm 0 min 0 W/m² 1026.9 hPa
03:18 12.9 °C 7.8 °C 71 % 8 km/h (10 km/h) 0 mm0 mm 0 min 0 W/m² 1026.9 hPa
03:12 13.1 °C 7.7 °C 70 % 9 km/h (11 km/h) 0 mm0 mm 0 min 0 W/m² 1026.9 hPa
03:06 13.1 °C 7.5 °C 69 % 10 km/h (12 km/h) 0 mm0 mm 0 min 0 W/m² 1027 hPa
03:00 13.5 °C 7.9 °C 69 % 10 km/h (13 km/h) 0 mm0 mm 0 min 0 W/m² 1026.8 hPa
02:54 13.6 °C 7.8 °C 68 % 10 km/h (12 km/h) 0 mm0 mm 0 min 0 W/m² 1026.8 hPa
02:48 13.6 °C 7.8 °C 68 % 10 km/h (12 km/h) 0 mm0 mm 0 min 0 W/m² 1026.8 hPa
02:42 13.8 °C 7.8 °C 67 % 10 km/h (12 km/h) 0 mm0 mm 0 min 0 W/m² 1026.8 hPa
02:36 13.6 °C 7.6 °C 67 % 10 km/h (12 km/h) 0 mm0 mm 0 min 0 W/m² 1026.8 hPa
02:30 13.7 °C 7.9 °C 68 % 11 km/h (13 km/h) 0 mm0 mm 0 min 0 W/m² 1026.7 hPa
02:24 13.8 °C 7.8 °C 67 % 10 km/h (13 km/h) 0 mm0 mm 0 min 0 W/m² 1026.7 hPa
02:18 13.9 °C 7.9 °C 67 % 11 km/h (14 km/h) 0 mm0 mm 0 min 0 W/m² 1026.6 hPa
02:12 13.6 °C 7.8 °C 68 % 11 km/h (14 km/h) 0 mm0 mm 0 min 0 W/m² 1026.6 hPa
02:06 13.6 °C 7.8 °C 68 % 10 km/h (13 km/h) 0 mm0 mm 0 min 0 W/m² 1026.7 hPa
02:00 13.4 °C 7.8 °C 69 % 10 km/h (12 km/h) 0 mm0 mm 0 min 0 W/m² 1026.7 hPa
01:54 13.9 °C 7.9 °C 67 % 10 km/h (14 km/h) 0 mm0 mm 0 min 0 W/m² 1026.7 hPa
01:48 13.9 °C 7.6 °C 66 % 10 km/h (14 km/h) 0 mm0 mm 0 min 0 W/m² 1026.8 hPa
01:42 14.4 °C 7.9 °C 65 % 9 km/h (13 km/h) 0 mm0 mm 0 min 0 W/m² 1026.7 hPa
01:36 14.2 °C 7.7 °C 65 % 10 km/h (13 km/h) 0 mm0 mm 0 min 0 W/m² 1026.6 hPa
01:30 14 °C 7.5 °C 65 % 11 km/h (13 km/h) 0 mm0 mm 0 min 0 W/m² 1026.7 hPa
01:24 14.4 °C 7.9 °C 65 % 11 km/h (13 km/h) 0 mm0 mm 0 min 0 W/m² 1026.6 hPa
01:18 14.5 °C 7.8 °C 64 % 11 km/h (13 km/h) 0 mm0 mm 0 min 0 W/m² 1026.6 hPa
01:12 14.2 °C 7.7 °C 65 % 11 km/h (14 km/h) 0 mm0 mm 0 min 0 W/m² 1026.5 hPa
01:06 14 °C 7.7 °C 66 % 11 km/h (13 km/h) 0 mm0 mm 0 min 0 W/m² 1026.5 hPa
01:00 14.5 °C 7.8 °C 64 % 12 km/h (15 km/h) 0 mm0 mm 0 min 0 W/m² 1026.6 hPa
00:54 14.7 °C 8 °C 64 % 12 km/h (15 km/h) 0 mm0 mm 0 min 0 W/m² 1026.5 hPa
00:48 14.7 °C 8 °C 64 % 9 km/h (15 km/h) 0 mm0 mm 0 min 0 W/m² 1026.5 hPa
00:42 14.6 °C 7.9 °C 64 % 5 km/h (10 km/h) 0 mm0 mm 0 min 0 W/m² 1026.7 hPa
00:36 13.9 °C 7.6 °C 66 % 2 km/h (5 km/h) 0 mm0 mm 0 min 0 W/m² 1026.8 hPa
00:30 13.9 °C 8.1 °C 68 % 3 km/h (7 km/h) 0 mm0 mm 0 min 0 W/m² 1026.8 hPa
00:24 14.1 °C 7.8 °C 66 % 4 km/h (9 km/h) 0 mm0 mm 0 min 0 W/m² 1026.7 hPa
00:18 14.9 °C 7.7 °C 62 % 7 km/h (11 km/h) 0 mm0 mm 0 min 0 W/m² 1026.5 hPa
00:12 15.5 °C 7.8 °C 60 % 12 km/h (19 km/h) 0 mm0 mm 0 min 0 W/m² 1026.4 hPa
00:06 16.2 °C 7.9 °C 58 % 15 km/h (22 km/h) 0 mm0 mm 0 min 0 W/m² 1026.2 hPa
00:00 16.4 °C 7.9 °C 57 % 16 km/h (22 km/h) 0 mm0 mm 0 min 0 W/m² 1026.2 hPa

Données via Météo-France

Relevés météo à Houdelaincourt

Cette page rassemble les observations de la station de Houdelaincourt : température, humidité, vent, précipitations et pression atmosphérique. Les graphiques facilitent le suivi de la journée, tandis que le tableau donne accès aux mesures horaires et infra-horaires disponibles.

Pour replacer ces mesures dans leur contexte, consultez la climatologie de Houdelaincourt. Retrouvez aussi la carte des observations météo en temps réel.